sensor_id;sensor_type;location;lat;lon;timestamp;P1;durP1;ratioP1;P2;durP2;ratioP2
69795;SDS011;57073;45.650;9.612;2023-02-07T00:05:14;15.88;;;7.88;;
69795;SDS011;57073;45.650;9.612;2023-02-07T00:15:15;15.70;;;8.13;;
69795;SDS011;57073;45.650;9.612;2023-02-07T00:25:15;17.10;;;7.85;;
69795;SDS011;57073;45.650;9.612;2023-02-07T00:35:16;14.93;;;7.70;;
69795;SDS011;57073;45.650;9.612;2023-02-07T00:45:17;19.75;;;8.38;;
69795;SDS011;57073;45.650;9.612;2023-02-07T00:55:18;18.27;;;7.80;;
69795;SDS011;57073;45.650;9.612;2023-02-07T01:05:18;20.38;;;8.27;;
69795;SDS011;57073;45.650;9.612;2023-02-07T01:15:18;17.60;;;8.20;;
69795;SDS011;57073;45.650;9.612;2023-02-07T01:25:19;17.47;;;8.97;;
69795;SDS011;57073;45.650;9.612;2023-02-07T01:35:19;16.85;;;8.18;;
69795;SDS011;57073;45.650;9.612;2023-02-07T01:45:27;19.67;;;9.23;;
69795;SDS011;57073;45.650;9.612;2023-02-07T01:55:32;17.15;;;8.43;;
69795;SDS011;57073;45.650;9.612;2023-02-07T02:05:36;16.27;;;8.13;;
69795;SDS011;57073;45.650;9.612;2023-02-07T02:26:13;19.05;;;8.63;;
69795;SDS011;57073;45.650;9.612;2023-02-07T02:46:38;19.13;;;9.03;;
69795;SDS011;57073;45.650;9.612;2023-02-07T03:27:24;16.92;;;8.52;;
69795;SDS011;57073;45.650;9.612;2023-02-07T03:37:30;18.37;;;8.47;;
69795;SDS011;57073;45.650;9.612;2023-02-07T03:47:35;16.23;;;8.17;;
69795;SDS011;57073;45.650;9.612;2023-02-07T03:57:35;19.40;;;7.78;;
69795;SDS011;57073;45.650;9.612;2023-02-07T04:07:36;17.27;;;7.17;;
69795;SDS011;57073;45.650;9.612;2023-02-07T04:17:37;16.33;;;6.55;;
69795;SDS011;57073;45.650;9.612;2023-02-07T04:27:37;14.20;;;6.13;;
69795;SDS011;57073;45.650;9.612;2023-02-07T04:37:37;11.95;;;5.40;;
69795;SDS011;57073;45.650;9.612;2023-02-07T04:47:39;13.43;;;6.00;;
69795;SDS011;57073;45.650;9.612;2023-02-07T04:57:40;13.52;;;5.88;;
69795;SDS011;57073;45.650;9.612;2023-02-07T05:07:40;15.93;;;6.17;;
69795;SDS011;57073;45.650;9.612;2023-02-07T05:17:40;12.07;;;5.20;;
69795;SDS011;57073;45.650;9.612;2023-02-07T05:27:41;11.43;;;5.72;;
69795;SDS011;57073;45.650;9.612;2023-02-07T05:37:41;15.68;;;6.88;;
69795;SDS011;57073;45.650;9.612;2023-02-07T05:47:42;12.60;;;6.83;;
69795;SDS011;57073;45.650;9.612;2023-02-07T05:57:42;17.87;;;7.07;;
69795;SDS011;57073;45.650;9.612;2023-02-07T06:07:43;14.63;;;7.32;;
69795;SDS011;57073;45.650;9.612;2023-02-07T06:17:43;17.10;;;7.80;;
69795;SDS011;57073;45.650;9.612;2023-02-07T06:27:44;16.97;;;7.27;;
69795;SDS011;57073;45.650;9.612;2023-02-07T06:37:44;15.50;;;7.20;;
69795;SDS011;57073;45.650;9.612;2023-02-07T06:47:44;18.50;;;8.35;;
69795;SDS011;57073;45.650;9.612;2023-02-07T06:57:45;21.80;;;9.73;;
69795;SDS011;57073;45.650;9.612;2023-02-07T07:07:45;21.63;;;9.18;;
69795;SDS011;57073;45.650;9.612;2023-02-07T07:17:46;18.70;;;8.47;;
69795;SDS011;57073;45.650;9.612;2023-02-07T07:27:47;20.57;;;9.07;;
69795;SDS011;57073;45.650;9.612;2023-02-07T07:37:47;22.00;;;8.67;;
69795;SDS011;57073;45.650;9.612;2023-02-07T07:47:47;17.25;;;8.32;;
69795;SDS011;57073;45.650;9.612;2023-02-07T07:57:48;19.15;;;8.77;;
69795;SDS011;57073;45.650;9.612;2023-02-07T08:07:48;23.50;;;8.63;;
69795;SDS011;57073;45.650;9.612;2023-02-07T08:17:49;17.67;;;8.60;;
69795;SDS011;57073;45.650;9.612;2023-02-07T08:27:50;19.70;;;8.93;;
69795;SDS011;57073;45.650;9.612;2023-02-07T08:37:50;20.30;;;8.40;;
69795;SDS011;57073;45.650;9.612;2023-02-07T08:47:51;12.60;;;6.97;;
69795;SDS011;57073;45.650;9.612;2023-02-07T08:57:52;13.95;;;6.72;;
69795;SDS011;57073;45.650;9.612;2023-02-07T09:07:52;11.45;;;5.70;;
69795;SDS011;57073;45.650;9.612;2023-02-07T09:17:53;12.85;;;6.18;;
69795;SDS011;57073;45.650;9.612;2023-02-07T09:27:53;12.93;;;6.80;;
69795;SDS011;57073;45.650;9.612;2023-02-07T09:37:54;12.52;;;6.32;;
69795;SDS011;57073;45.650;9.612;2023-02-07T09:48:05;11.53;;;6.00;;
69795;SDS011;57073;45.650;9.612;2023-02-07T10:08:36;13.73;;;6.57;;
69795;SDS011;57073;45.650;9.612;2023-02-07T10:29:06;13.27;;;6.20;;
69795;SDS011;57073;45.650;9.612;2023-02-07T10:39:34;12.57;;;6.17;;
69795;SDS011;57073;45.650;9.612;2023-02-07T10:49:39;13.27;;;6.23;;
69795;SDS011;57073;45.650;9.612;2023-02-07T10:59:40;17.60;;;6.63;;
69795;SDS011;57073;45.650;9.612;2023-02-07T11:09:45;13.77;;;6.23;;
69795;SDS011;57073;45.650;9.612;2023-02-07T11:19:45;14.20;;;7.30;;
69795;SDS011;57073;45.650;9.612;2023-02-07T11:29:47;13.97;;;6.43;;
69795;SDS011;57073;45.650;9.612;2023-02-07T11:50:19;12.97;;;7.63;;
69795;SDS011;57073;45.650;9.612;2023-02-07T12:00:27;16.07;;;8.60;;
69795;SDS011;57073;45.650;9.612;2023-02-07T12:10:30;22.35;;;9.23;;
69795;SDS011;57073;45.650;9.612;2023-02-07T12:20:39;16.57;;;8.17;;
69795;SDS011;57073;45.650;9.612;2023-02-07T12:30:45;15.87;;;8.33;;
69795;SDS011;57073;45.650;9.612;2023-02-07T12:41:01;15.73;;;7.78;;
69795;SDS011;57073;45.650;9.612;2023-02-07T12:51:27;15.60;;;8.00;;
69795;SDS011;57073;45.650;9.612;2023-02-07T13:01:38;17.47;;;8.57;;
69795;SDS011;57073;45.650;9.612;2023-02-07T13:22:01;15.87;;;7.93;;
69795;SDS011;57073;45.650;9.612;2023-02-07T13:32:22;16.27;;;7.83;;
69795;SDS011;57073;45.650;9.612;2023-02-07T14:02:56;16.47;;;8.63;;
69795;SDS011;57073;45.650;9.612;2023-02-07T14:13:00;17.55;;;7.82;;
69795;SDS011;57073;45.650;9.612;2023-02-07T14:23:03;16.30;;;8.03;;
69795;SDS011;57073;45.650;9.612;2023-02-07T14:43:21;15.80;;;7.25;;
69795;SDS011;57073;45.650;9.612;2023-02-07T14:53:24;13.17;;;6.73;;
69795;SDS011;57073;45.650;9.612;2023-02-07T15:03:29;14.25;;;6.80;;
69795;SDS011;57073;45.650;9.612;2023-02-07T15:23:41;15.60;;;6.33;;
69795;SDS011;57073;45.650;9.612;2023-02-07T15:33:49;16.65;;;6.88;;
69795;SDS011;57073;45.650;9.612;2023-02-07T15:43:58;14.50;;;6.30;;
69795;SDS011;57073;45.650;9.612;2023-02-07T15:54:00;17.90;;;6.33;;
69795;SDS011;57073;45.650;9.612;2023-02-07T16:04:01;11.77;;;6.30;;
69795;SDS011;57073;45.650;9.612;2023-02-07T16:24:24;11.00;;;5.57;;
69795;SDS011;57073;45.650;9.612;2023-02-07T16:34:27;13.63;;;6.28;;
69795;SDS011;57073;45.650;9.612;2023-02-07T16:44:27;13.70;;;6.43;;
69795;SDS011;57073;45.650;9.612;2023-02-07T16:54:30;17.20;;;7.47;;
69795;SDS011;57073;45.650;9.612;2023-02-07T17:04:30;18.58;;;7.45;;
69795;SDS011;57073;45.650;9.612;2023-02-07T17:14:31;14.77;;;6.85;;
69795;SDS011;57073;45.650;9.612;2023-02-07T17:24:31;14.57;;;6.97;;
69795;SDS011;57073;45.650;9.612;2023-02-07T17:34:31;18.63;;;9.32;;
69795;SDS011;57073;45.650;9.612;2023-02-07T17:44:32;18.92;;;10.23;;
69795;SDS011;57073;45.650;9.612;2023-02-07T17:54:34;26.00;;;13.70;;
69795;SDS011;57073;45.650;9.612;2023-02-07T18:04:34;17.83;;;8.77;;
69795;SDS011;57073;45.650;9.612;2023-02-07T18:14:35;17.73;;;9.20;;
69795;SDS011;57073;45.650;9.612;2023-02-07T18:24:35;21.98;;;10.30;;
69795;SDS011;57073;45.650;9.612;2023-02-07T18:34:36;20.17;;;9.10;;
69795;SDS011;57073;45.650;9.612;2023-02-07T18:44:36;24.30;;;10.90;;
69795;SDS011;57073;45.650;9.612;2023-02-07T18:54:37;18.35;;;8.57;;
69795;SDS011;57073;45.650;9.612;2023-02-07T19:04:38;21.23;;;9.50;;
69795;SDS011;57073;45.650;9.612;2023-02-07T19:14:39;22.45;;;10.30;;
69795;SDS011;57073;45.650;9.612;2023-02-07T19:24:40;27.80;;;10.00;;
69795;SDS011;57073;45.650;9.612;2023-02-07T19:34:41;21.03;;;10.27;;
69795;SDS011;57073;45.650;9.612;2023-02-07T19:44:41;26.67;;;10.98;;
69795;SDS011;57073;45.650;9.612;2023-02-07T19:54:41;25.85;;;11.57;;
69795;SDS011;57073;45.650;9.612;2023-02-07T20:04:42;24.90;;;10.80;;
69795;SDS011;57073;45.650;9.612;2023-02-07T20:14:42;19.50;;;10.67;;
69795;SDS011;57073;45.650;9.612;2023-02-07T20:24:43;24.65;;;10.80;;
69795;SDS011;57073;45.650;9.612;2023-02-07T20:34:43;25.92;;;12.02;;
69795;SDS011;57073;45.650;9.612;2023-02-07T20:44:43;25.30;;;11.75;;
69795;SDS011;57073;45.650;9.612;2023-02-07T20:54:44;28.10;;;11.73;;
69795;SDS011;57073;45.650;9.612;2023-02-07T21:04:44;23.58;;;12.90;;
69795;SDS011;57073;45.650;9.612;2023-02-07T21:14:44;24.73;;;11.82;;
69795;SDS011;57073;45.650;9.612;2023-02-07T21:24:46;24.13;;;11.40;;
69795;SDS011;57073;45.650;9.612;2023-02-07T21:34:46;24.67;;;11.50;;
69795;SDS011;57073;45.650;9.612;2023-02-07T21:44:47;24.50;;;11.50;;
69795;SDS011;57073;45.650;9.612;2023-02-07T21:54:47;28.27;;;11.88;;
69795;SDS011;57073;45.650;9.612;2023-02-07T22:04:48;24.57;;;11.63;;
69795;SDS011;57073;45.650;9.612;2023-02-07T22:14:48;25.30;;;12.50;;
69795;SDS011;57073;45.650;9.612;2023-02-07T22:24:49;26.45;;;12.77;;
69795;SDS011;57073;45.650;9.612;2023-02-07T22:34:49;29.25;;;12.82;;
69795;SDS011;57073;45.650;9.612;2023-02-07T22:44:49;30.57;;;13.63;;
69795;SDS011;57073;45.650;9.612;2023-02-07T22:54:49;28.40;;;13.20;;
69795;SDS011;57073;45.650;9.612;2023-02-07T23:04:50;21.40;;;10.85;;
69795;SDS011;57073;45.650;9.612;2023-02-07T23:14:50;23.60;;;11.63;;
69795;SDS011;57073;45.650;9.612;2023-02-07T23:24:52;21.13;;;11.03;;
69795;SDS011;57073;45.650;9.612;2023-02-07T23:34:53;23.33;;;11.90;;
69795;SDS011;57073;45.650;9.612;2023-02-07T23:44:54;30.63;;;11.43;;
69795;SDS011;57073;45.650;9.612;2023-02-07T23:54:54;22.43;;;10.80;;
